createdAt,value
2023-01-11T00:02:30.561Z,5.85
2023-01-11T00:06:06.409Z,6.82
2023-01-11T00:09:19.728Z,6.07
2023-01-11T00:12:39.499Z,7.53
2023-01-11T00:15:50.246Z,7.67
2023-01-11T00:18:57.569Z,4.95
2023-01-11T00:22:01.294Z,5.65
2023-01-11T00:25:24.408Z,4.60
2023-01-11T00:28:44.211Z,5.82
2023-01-11T00:31:56.913Z,6.67
2023-01-11T00:35:14.351Z,6.32
2023-01-11T00:38:57.195Z,6.82
2023-01-11T00:42:33.091Z,6.22
2023-01-11T00:45:55.314Z,7.45
2023-01-11T00:49:02.524Z,6.33
2023-01-11T00:52:24.032Z,8.98
2023-01-11T00:55:43.043Z,6.30
2023-01-11T00:58:46.083Z,5.85
2023-01-11T01:01:50.347Z,6.07
2023-01-11T01:05:00.546Z,4.57
2023-01-11T01:08:07.502Z,6.57
2023-01-11T01:11:14.601Z,5.43
2023-01-11T01:14:31.110Z,5.63
2023-01-11T01:17:39.462Z,5.72
2023-01-11T01:21:02.162Z,5.67
2023-01-11T01:24:24.084Z,6.57
2023-01-11T01:27:48.035Z,5.50
2023-01-11T01:31:10.090Z,7.18
2023-01-11T01:34:31.352Z,6.30
2023-01-11T01:37:54.176Z,5.80
2023-01-11T01:41:16.282Z,6.57
2023-01-11T01:44:59.112Z,5.68
2023-01-11T01:48:13.109Z,6.63
2023-01-11T01:51:24.178Z,6.55
2023-01-11T01:54:46.046Z,8.17
2023-01-11T01:58:08.102Z,7.20
2023-01-11T02:01:47.380Z,5.50
2023-01-11T02:04:57.521Z,5.30
2023-01-11T02:08:19.023Z,6.18
2023-01-11T02:11:38.821Z,8.00
2023-01-11T02:14:57.057Z,6.47
2023-01-11T02:18:12.441Z,9.40
2023-01-11T02:21:37.073Z,6.88
2023-01-11T02:25:08.130Z,7.30
2023-01-11T02:28:38.453Z,7.33
2023-01-11T02:32:35.028Z,7.10
2023-01-11T02:36:09.013Z,6.80
2023-01-11T02:39:36.851Z,8.98
2023-01-11T02:43:04.985Z,9.18
2023-01-11T02:46:33.113Z,10.63
2023-01-11T02:50:04.275Z,7.78
2023-01-11T02:53:28.713Z,9.00
2023-01-11T02:56:39.051Z,9.25
2023-01-11T02:59:43.030Z,12.40
2023-01-11T03:03:19.835Z,9.83
2023-01-11T03:06:35.370Z,12.10
2023-01-11T03:09:55.804Z,13.00
2023-01-11T03:13:44.094Z,9.35
2023-01-11T03:17:17.791Z,11.45
2023-01-11T03:20:53.556Z,11.27
2023-01-11T03:24:12.427Z,11.60
2023-01-11T03:27:33.742Z,10.15
2023-01-11T03:30:52.998Z,11.77
2023-01-11T03:34:33.452Z,10.20
2023-01-11T03:38:03.097Z,10.07
2023-01-11T03:41:19.318Z,10.60
2023-01-11T03:44:46.110Z,14.48
2023-01-11T03:48:27.841Z,9.88
2023-01-11T03:52:02.875Z,11.07
2023-01-11T03:55:16.664Z,10.60
2023-01-11T03:58:34.791Z,10.25
2023-01-11T04:02:06.676Z,13.85
2023-01-11T04:05:11.406Z,12.07
2023-01-11T04:08:15.155Z,11.57
2023-01-11T04:11:26.417Z,10.73
2023-01-11T04:14:49.929Z,10.63
2023-01-11T04:18:16.857Z,12.05
2023-01-11T04:21:26.322Z,11.50
2023-01-11T04:24:41.757Z,12.70
2023-01-11T04:28:15.788Z,12.53
2023-01-11T04:31:19.475Z,10.23
2023-01-11T04:34:23.762Z,13.18
2023-01-11T04:37:30.479Z,12.75
2023-01-11T04:40:53.704Z,12.10
2023-01-11T04:44:14.651Z,11.70
2023-01-11T04:47:38.737Z,11.57
2023-01-11T04:50:49.211Z,10.68
2023-01-11T04:53:53.848Z,14.68
2023-01-11T04:56:59.952Z,13.02
2023-01-11T05:00:22.424Z,10.73
2023-01-11T05:03:43.676Z,10.52
2023-01-11T05:06:56.380Z,13.82
2023-01-11T05:10:13.692Z,14.18
2023-01-11T05:13:17.382Z,10.48
2023-01-11T05:16:26.428Z,12.47
2023-01-11T05:19:39.958Z,13.98
2023-01-11T05:22:46.743Z,13.88
2023-01-11T05:25:53.876Z,12.77
2023-01-11T05:29:04.382Z,12.70
2023-01-11T05:32:20.667Z,13.03
2023-01-11T05:35:40.603Z,15.90
2023-01-11T05:39:08.387Z,13.68
2023-01-11T05:42:22.281Z,15.68
2023-01-11T05:45:48.294Z,15.40
2023-01-11T05:48:59.532Z,13.27
2023-01-11T05:52:23.521Z,14.85
2023-01-11T05:56:08.617Z,15.80
2023-01-11T05:59:22.881Z,17.23
2023-01-11T06:02:45.028Z,15.65
2023-01-11T06:06:07.248Z,14.63
2023-01-11T06:09:29.597Z,15.85
2023-01-11T06:12:50.525Z,17.65
2023-01-11T06:16:02.589Z,16.35
2023-01-11T06:19:06.313Z,16.80
2023-01-11T06:22:36.344Z,17.97
2023-01-11T06:26:02.892Z,16.60
2023-01-11T06:29:38.478Z,17.05
2023-01-11T06:33:13.505Z,15.50
2023-01-11T06:36:32.577Z,17.55
2023-01-11T06:39:53.738Z,15.93
2023-01-11T06:43:07.577Z,15.57
2023-01-11T06:46:33.474Z,16.88
2023-01-11T06:50:22.354Z,15.75
2023-01-11T06:53:47.031Z,18.50
2023-01-11T06:57:03.206Z,17.97
2023-01-11T07:00:19.822Z,15.30
2023-01-11T07:03:48.123Z,16.90
2023-01-11T07:07:08.923Z,18.05
2023-01-11T07:14:46.879Z,19.30
2023-01-11T07:18:06.973Z,17.90
2023-01-11T07:21:44.733Z,17.35
2023-01-11T07:25:15.348Z,17.33
2023-01-11T07:28:38.548Z,18.67
2023-01-11T07:31:46.535Z,18.53
2023-01-11T07:34:51.702Z,19.75
2023-01-11T07:38:00.623Z,19.35
2023-01-11T07:42:19.994Z,22.70
2023-01-11T07:45:45.347Z,19.60
2023-01-11T07:50:04.296Z,18.50
2023-01-11T07:53:17.587Z,17.80
2023-01-11T07:56:34.729Z,16.73
2023-01-11T08:00:36.549Z,16.92
2023-01-11T08:03:51.645Z,15.13
2023-01-11T08:06:54.821Z,13.73
2023-01-11T08:10:03.509Z,13.95
2023-01-11T08:14:19.634Z,16.85
2023-01-11T08:17:31.994Z,18.13
2023-01-11T08:20:51.602Z,17.50
2023-01-11T08:24:20.555Z,18.73
2023-01-11T08:28:03.269Z,15.65
2023-01-11T08:31:09.180Z,19.90
2023-01-11T08:34:29.711Z,18.40
2023-01-11T08:37:52.061Z,14.57
2023-01-11T08:41:14.793Z,17.50
2023-01-11T08:45:35.205Z,50.38
2023-01-11T08:49:03.687Z,22.52
2023-01-11T08:52:31.785Z,21.48
2023-01-11T08:57:00.976Z,20.48
2023-01-11T09:01:07.068Z,16.40
2023-01-11T09:04:24.775Z,15.60
2023-01-11T09:07:31.693Z,15.98
2023-01-11T09:10:45.276Z,15.93
2023-01-11T09:14:05.731Z,17.38
2023-01-11T09:17:25.345Z,16.57
2023-01-11T09:20:39.356Z,14.13
2023-01-11T09:24:22.009Z,16.35
2023-01-11T09:27:31.738Z,16.90
2023-01-11T09:30:52.635Z,15.18
2023-01-11T09:34:09.043Z,14.10
2023-01-11T09:37:33.298Z,15.52
2023-01-11T09:41:39.180Z,18.48
2023-01-11T09:45:33.671Z,42.20
2023-01-11T09:49:03.364Z,15.13
2023-01-11T09:52:36.420Z,12.67
2023-01-11T09:55:47.506Z,14.73
2023-01-11T09:59:48.650Z,15.50
2023-01-11T10:03:30.865Z,15.10
2023-01-11T10:07:17.326Z,15.43
2023-01-11T10:18:27.482Z,11.90
2023-01-11T10:19:18.528Z,13.10
2023-01-11T10:22:34.104Z,11.63
2023-01-11T10:25:50.855Z,13.50
2023-01-11T10:51:47.766Z,13.43
2023-01-11T10:55:27.504Z,11.07
2023-01-11T10:59:24.918Z,10.75
2023-01-11T11:02:51.064Z,11.25
2023-01-11T11:06:33.579Z,11.52
2023-01-11T11:10:04.501Z,13.02
2023-01-11T11:17:54.078Z,11.10
2023-01-11T11:21:40.312Z,12.43
2023-01-11T11:25:29.690Z,12.88
2023-01-11T11:29:08.671Z,10.38
2023-01-11T11:32:41.924Z,11.97
2023-01-11T11:36:10.408Z,11.55
2023-01-11T11:44:37.237Z,11.70
2023-01-11T11:47:41.440Z,11.93
2023-01-11T11:51:14.125Z,12.97
2023-01-11T11:54:30.265Z,12.85
2023-01-11T11:58:03.685Z,12.20
2023-01-11T12:01:40.743Z,9.63
2023-01-11T12:04:53.844Z,14.07
2023-01-11T12:08:25.106Z,12.20
2023-01-11T12:11:39.323Z,27.70
2023-01-11T12:14:42.960Z,8.07
2023-01-11T12:17:46.466Z,7.72
2023-01-11T12:25:29.309Z,6.83
2023-01-11T12:28:52.098Z,9.48
2023-01-11T12:32:29.436Z,8.10
2023-01-11T12:36:17.468Z,7.18
2023-01-11T12:40:02.015Z,6.00
2023-01-11T12:43:31.007Z,5.43
2023-01-11T12:47:04.225Z,5.30
2023-01-11T12:50:22.639Z,6.70
2023-01-11T12:53:28.875Z,14.02
2023-01-11T12:56:55.034Z,7.45
2023-01-11T13:00:40.738Z,6.37
2023-01-11T13:04:42.950Z,8.13
2023-01-11T13:09:16.660Z,21.13
2023-01-11T13:12:51.350Z,6.88
2023-01-11T13:20:58.851Z,5.83
2023-01-11T13:24:31.258Z,5.47
2023-01-11T13:27:46.323Z,9.02
2023-01-11T13:31:27.411Z,7.47
2023-01-11T13:35:04.181Z,8.40
2023-01-11T13:38:51.970Z,8.07
2023-01-11T13:42:04.659Z,9.65
2023-01-11T13:45:20.040Z,10.95
2023-01-11T13:48:48.517Z,9.65
2023-01-11T13:52:22.995Z,9.32
2023-01-11T13:55:46.858Z,7.13
2023-01-11T13:59:17.899Z,31.23
2023-01-11T14:03:29.419Z,8.18
2023-01-11T14:06:43.119Z,37.40
2023-01-11T14:10:28.213Z,11.85
2023-01-11T14:14:13.757Z,9.57
2023-01-11T14:17:49.584Z,10.98
2023-01-11T14:21:11.684Z,9.73
2023-01-11T14:24:23.819Z,9.93
2023-01-11T14:27:33.447Z,11.55
2023-01-11T14:30:55.504Z,8.33
2023-01-11T14:34:32.768Z,11.10
2023-01-11T14:38:04.464Z,11.18
2023-01-11T14:41:48.136Z,12.57
2023-01-11T14:45:36.970Z,12.50
2023-01-11T14:48:58.737Z,13.80
2023-01-11T14:52:18.564Z,11.95
2023-01-11T14:55:35.707Z,11.13
2023-01-11T14:59:03.467Z,15.20
2023-01-11T15:02:19.257Z,13.13
2023-01-11T15:05:36.164Z,18.27
2023-01-11T15:09:02.011Z,12.70
2023-01-11T15:12:26.251Z,18.75
2023-01-11T15:15:58.371Z,14.23
2023-01-11T15:19:08.077Z,12.63
2023-01-11T15:22:28.592Z,16.03
2023-01-11T15:25:49.276Z,12.75
2023-01-11T15:29:04.133Z,13.40
2023-01-11T15:32:24.288Z,17.45
2023-01-11T15:35:44.018Z,14.25
2023-01-11T15:39:09.265Z,16.00
2023-01-11T15:43:01.217Z,11.63
2023-01-11T15:46:52.390Z,15.75
2023-01-11T15:50:41.952Z,14.48
2023-01-11T15:54:08.562Z,13.25
2023-01-11T15:57:24.297Z,13.47
2023-01-11T16:01:11.719Z,15.95
2023-01-11T16:04:41.495Z,21.65
2023-01-11T16:08:12.903Z,14.50
2023-01-11T16:11:52.891Z,13.43
2023-01-11T16:15:45.009Z,15.97
2023-01-11T16:18:59.995Z,18.17
2023-01-11T16:22:25.511Z,21.15
2023-01-11T16:25:40.913Z,21.58
2023-01-11T16:28:57.328Z,22.25
2023-01-11T16:32:39.171Z,19.60
2023-01-11T16:35:49.900Z,25.95
2023-01-11T16:39:13.839Z,24.60
2023-01-11T16:42:34.875Z,20.83
2023-01-11T16:45:53.802Z,19.45
2023-01-11T16:49:18.813Z,15.27
2023-01-11T16:52:41.958Z,19.08
2023-01-11T16:56:24.146Z,17.38
2023-01-11T16:59:34.076Z,24.40
2023-01-11T17:02:51.061Z,19.75
2023-01-11T17:06:11.841Z,21.17
2023-01-11T17:09:21.718Z,20.02
2023-01-11T17:12:26.638Z,18.13
2023-01-11T17:16:00.653Z,19.58
2023-01-11T17:19:41.911Z,18.58
2023-01-11T17:23:01.796Z,19.70
2023-01-11T17:26:26.171Z,19.13
2023-01-11T17:29:40.983Z,19.02
2023-01-11T17:32:47.919Z,22.55
2023-01-11T17:35:53.505Z,22.05
2023-01-11T17:39:00.161Z,25.43
2023-01-11T17:42:29.633Z,23.17
2023-01-11T17:45:35.178Z,20.40
2023-01-11T17:48:56.008Z,29.83
2023-01-11T17:52:20.342Z,23.27
2023-01-11T17:55:32.868Z,32.00
2023-01-11T17:58:40.992Z,33.55
2023-01-11T18:02:08.972Z,29.27
2023-01-11T18:05:18.172Z,26.15
2023-01-11T18:08:25.268Z,26.50
2023-01-11T18:11:42.004Z,24.17
2023-01-11T18:14:53.326Z,23.52
2023-01-11T18:17:57.588Z,24.30
2023-01-11T18:21:00.825Z,25.25
2023-01-11T18:24:11.980Z,26.10
2023-01-11T18:27:28.864Z,29.57
2023-01-11T18:30:44.132Z,31.83
2023-01-11T18:33:53.926Z,28.88
2023-01-11T18:37:08.686Z,27.88
2023-01-11T18:40:19.825Z,30.95
2023-01-11T18:43:33.328Z,29.97
2023-01-11T18:46:40.853Z,28.15
2023-01-11T18:49:57.470Z,28.50
2023-01-11T18:53:00.796Z,27.90
2023-01-11T18:56:05.568Z,32.30
2023-01-11T18:59:18.043Z,29.97
2023-01-11T19:02:35.091Z,35.38
2023-01-11T19:05:51.415Z,33.42
2023-01-11T19:08:58.278Z,35.25
2023-01-11T19:12:05.651Z,35.97
2023-01-11T19:15:15.568Z,38.03
2023-01-11T19:18:19.993Z,36.97
2023-01-11T19:21:43.511Z,41.78
2023-01-11T19:25:21.578Z,39.28
2023-01-11T19:28:41.592Z,43.47
2023-01-11T19:32:02.412Z,41.67
2023-01-11T19:35:27.569Z,41.58
2023-01-11T19:38:51.447Z,39.95
2023-01-11T19:41:58.068Z,35.85
2023-01-11T19:45:06.428Z,34.60
2023-01-11T19:48:11.109Z,34.60
2023-01-11T19:51:20.963Z,37.45
2023-01-11T19:54:44.784Z,35.53
2023-01-11T19:58:18.299Z,35.22
2023-01-11T20:01:38.933Z,39.72
2023-01-11T20:04:56.425Z,39.63
2023-01-11T20:08:05.968Z,34.45
2023-01-11T20:11:14.505Z,38.67
2023-01-11T20:14:22.702Z,41.58
2023-01-11T20:17:25.909Z,37.63
2023-01-11T20:20:33.636Z,38.03
2023-01-11T20:23:38.769Z,36.95
2023-01-11T20:26:55.443Z,39.85
2023-01-11T20:30:16.295Z,36.63
2023-01-11T20:33:47.447Z,39.30
2023-01-11T20:37:02.187Z,54.67
2023-01-11T20:40:21.352Z,42.63
2023-01-11T20:43:50.134Z,52.63
2023-01-11T20:47:00.144Z,55.08
2023-01-11T20:50:04.211Z,47.10
2023-01-11T20:53:14.114Z,43.07
2023-01-11T20:56:30.676Z,42.20
2023-01-11T20:59:37.015Z,45.15
2023-01-11T21:03:04.762Z,43.53
2023-01-11T21:06:23.498Z,43.20
2023-01-11T21:09:30.285Z,49.77
2023-01-11T21:15:46.450Z,42.72
2023-01-11T21:19:09.195Z,41.97
2023-01-11T21:22:34.180Z,45.67
2023-01-11T21:26:00.305Z,42.87
2023-01-11T21:29:05.520Z,45.33
2023-01-11T21:32:09.236Z,45.20
2023-01-11T21:35:18.762Z,44.50
2023-01-11T21:38:42.692Z,47.90
2023-01-11T21:42:06.117Z,50.10
2023-01-11T21:45:21.032Z,56.17
2023-01-11T21:48:44.126Z,54.40
2023-01-11T21:52:00.139Z,57.83
2023-01-11T21:55:21.359Z,53.42
2023-01-11T21:58:37.550Z,57.37
2023-01-11T22:01:43.780Z,55.28
2023-01-11T22:04:48.297Z,51.38
2023-01-11T22:07:58.196Z,52.42
2023-01-11T22:11:10.061Z,48.67
2023-01-11T22:14:14.441Z,48.33
2023-01-11T22:17:24.433Z,47.50
2023-01-11T22:20:48.046Z,44.38
2023-01-11T22:24:10.424Z,44.40
2023-01-11T22:27:27.042Z,48.47
2023-01-11T22:30:58.822Z,46.50
2023-01-11T22:34:02.918Z,51.25
2023-01-11T22:37:30.786Z,50.75
2023-01-11T22:41:05.151Z,52.85
2023-01-11T22:44:26.023Z,57.45
2023-01-11T22:47:45.911Z,53.17
2023-01-11T22:51:11.763Z,57.42
2023-01-11T22:54:22.981Z,58.67
2023-01-11T22:57:26.981Z,56.45
2023-01-11T23:00:31.787Z,55.05
2023-01-11T23:03:39.452Z,57.43
2023-01-11T23:06:43.518Z,52.30
2023-01-11T23:09:47.244Z,52.50
2023-01-11T23:13:15.891Z,50.30
2023-01-11T23:16:30.181Z,51.92
2023-01-11T23:19:47.875Z,49.07
2023-01-11T23:23:08.917Z,47.45
2023-01-11T23:26:33.912Z,47.50
2023-01-11T23:30:03.807Z,52.85
2023-01-11T23:33:25.732Z,52.03
2023-01-11T23:36:47.801Z,46.60
2023-01-11T23:40:09.773Z,45.22
2023-01-11T23:43:26.030Z,48.22
2023-01-11T23:47:02.984Z,50.20
2023-01-11T23:50:12.964Z,47.00
2023-01-11T23:53:15.795Z,48.37
2023-01-11T23:56:22.828Z,44.22
2023-01-11T23:59:32.465Z,47.60
